Eureka, North Carolina
Current Conditions -  °F | °C
As of 7:55 AM on Wednesday 26 Nov 2014 (Local Time) from KGWW Reporting Station
Light Rain Light Rain  
Wind Chill: 39°   Ceiling: 1300
Heat Index: 46°   Visibility: 5mi
Dew Point: 45°   Wind: 18mph
Humidity: 96%   Direction: 20°NNE
Pressure: 29.84"   Gusts: 28mph
Location:  35.5277°N, 77.996°W
Report Text: KGWW 261255Z AUTO 02016G24KT 5SM -RA SCT007 OVC013 08/07 A2984 RMK AO2 T00780072
Loading
Personal Weather Stations






























Interactive Weather Map New forecast layout! Learn more

10-Day Weather Forecast

Advertisements
Track Severe Weather on mobile